CheckWX is a tool to help pilots better visualize weather data.  It is not intended as a substitute for an official pre-flight weather briefing.

05:55:18 UTC

KBIL METAR
Billings Logan International Airport
Billings, Montana, USA
Current

22 mins ago

KBIL 250533Z 01006KT 4SM BR OVC005 02/02 A3020 RMK AO2 T00220017 $
Observed
Mar-25 @ 05:33 UTC
Wind
  • 010° at 6 KTS
Visibility
4 SM
Flight Rules
IFR
Conditions
Mist
Cloud Levels
  • Overcast at 500' AGL
Temperature
C / 36°F
Dewpoint
C / 36°F
Humidity
100%
Altimeter
30.2" Hg
Pressure
1022.72 hPa
Previous

1 hour ago

KBIL 250453Z 03005KT 4SM BR OVC004 03/02 A3020 RMK AO2 SLP242 T00280017 $
Observed
Mar-25 @ 04:53 UTC
Wind
  • 030° at 5 KTS
Visibility
4 SM
Flight Rules
LIFR
Conditions
Mist
Cloud Levels
  • Overcast at 400' AGL
Temperature
C / 37°F
Dewpoint
C / 36°F
Humidity
93%
Altimeter
30.2" Hg
Pressure
1024.2 hPa
Previous

1 hour ago

KBIL 250438Z 03005KT 6SM BR OVC004 03/02 A3020 RMK AO2 T00280017 $
Observed
Mar-25 @ 04:38 UTC
Wind
  • 030° at 5 KTS
Visibility
6 SM
Flight Rules
LIFR
Conditions
Mist
Cloud Levels
  • Overcast at 400' AGL
Temperature
C / 37°F
Dewpoint
C / 36°F
Humidity
93%
Altimeter
30.2" Hg
Pressure
1022.72 hPa